createdAt,value
2022-12-01T00:04:42.178Z,61.28
2022-12-01T00:10:03.255Z,67.72
2022-12-01T00:15:06.003Z,61.17
2022-12-01T00:20:08.799Z,59.13
2022-12-01T00:25:12.243Z,65.28
2022-12-01T00:30:15.250Z,62.65
2022-12-01T00:35:17.869Z,60.55
2022-12-01T00:40:20.407Z,60.38
2022-12-01T00:45:22.936Z,68.10
2022-12-01T00:50:25.490Z,65.82
2022-12-01T00:55:28.038Z,62.90
2022-12-01T01:00:30.547Z,62.28
2022-12-01T01:05:36.724Z,60.70
2022-12-01T01:10:40.067Z,70.03
2022-12-01T01:15:42.755Z,64.10
2022-12-01T01:20:45.406Z,69.75
2022-12-01T01:25:47.870Z,75.53
2022-12-01T01:30:50.402Z,70.18
2022-12-01T01:35:58.568Z,73.18
2022-12-01T01:41:01.798Z,73.28
2022-12-01T01:46:05.583Z,73.00
2022-12-01T01:51:09.299Z,75.90
2022-12-01T01:56:11.873Z,73.13
2022-12-01T02:01:14.664Z,78.53
2022-12-01T02:06:17.318Z,68.38
2022-12-01T02:11:26.031Z,78.72
2022-12-01T02:16:40.299Z,71.88
2022-12-01T02:22:09.263Z,68.78
2022-12-01T02:27:30.924Z,77.97
2022-12-01T02:32:42.859Z,69.95
2022-12-01T02:37:48.445Z,70.00
2022-12-01T02:43:02.793Z,72.78
2022-12-01T02:48:09.118Z,76.70
2022-12-01T02:53:13.065Z,77.05
2022-12-01T02:58:16.030Z,71.38
2022-12-01T03:03:37.469Z,69.13
2022-12-01T03:08:46.155Z,78.28
2022-12-01T03:13:55.062Z,73.38
2022-12-01T03:18:59.829Z,66.07
2022-12-01T03:24:06.397Z,61.90
2022-12-01T03:29:12.505Z,63.60
2022-12-01T03:34:31.057Z,71.13
2022-12-01T03:39:34.733Z,61.63
2022-12-01T03:44:42.053Z,70.05
2022-12-01T03:49:45.567Z,65.18
2022-12-01T03:54:54.226Z,77.10
2022-12-01T03:59:56.954Z,69.70
2022-12-01T04:04:59.476Z,67.15
2022-12-01T04:10:02.083Z,69.68
2022-12-01T04:15:08.965Z,72.22
2022-12-01T04:20:13.497Z,72.28
2022-12-01T04:25:16.076Z,94.72
2022-12-01T04:30:18.705Z,69.25
2022-12-01T04:35:21.229Z,72.55
2022-12-01T04:40:23.788Z,70.50
2022-12-01T04:45:26.307Z,62.97
2022-12-01T04:50:28.796Z,64.60
2022-12-01T04:55:31.534Z,64.53
2022-12-01T05:00:34.124Z,66.32
2022-12-01T05:05:36.786Z,67.75
2022-12-01T05:10:39.676Z,67.35
2022-12-01T05:15:42.262Z,65.20
2022-12-01T05:21:00.018Z,66.10
2022-12-01T05:26:02.957Z,68.55
2022-12-01T05:31:08.199Z,65.75
2022-12-01T05:36:10.783Z,63.13
2022-12-01T05:41:13.296Z,66.90
2022-12-01T05:46:16.070Z,68.45
2022-12-01T05:51:18.681Z,64.82
2022-12-01T05:56:21.978Z,72.10
2022-12-01T06:01:24.547Z,71.38
2022-12-01T06:06:27.186Z,72.35
2022-12-01T06:11:29.689Z,67.10
2022-12-01T06:16:32.444Z,70.10
2022-12-01T06:21:35.208Z,75.57
2022-12-01T06:26:39.789Z,74.07
2022-12-01T06:31:42.437Z,85.05
2022-12-01T06:36:45.013Z,83.05
2022-12-01T06:41:48.277Z,87.18
2022-12-01T06:46:53.151Z,86.20
2022-12-01T06:51:55.936Z,118.03
2022-12-01T06:56:58.804Z,103.60
2022-12-01T07:02:03.343Z,108.45
2022-12-01T07:07:06.983Z,111.97
2022-12-01T07:12:12.604Z,105.00
2022-12-01T07:17:15.379Z,116.20
2022-12-01T07:22:18.074Z,105.82
2022-12-01T07:27:20.744Z,114.00
2022-12-01T07:32:26.321Z,117.25
2022-12-01T07:37:29.384Z,114.85
2022-12-01T07:42:32.037Z,111.95
2022-12-01T07:47:34.767Z,111.82
2022-12-01T07:52:37.424Z,109.80
2022-12-01T07:57:40.116Z,111.95
2022-12-01T08:02:43.157Z,112.70
2022-12-01T08:07:45.950Z,115.60
2022-12-01T08:12:48.676Z,110.65
2022-12-01T08:17:51.260Z,119.60
2022-12-01T08:22:53.893Z,108.85
2022-12-01T08:27:56.874Z,113.10
2022-12-01T08:32:59.459Z,110.53
2022-12-01T08:38:02.222Z,101.60
2022-12-01T08:43:05.409Z,97.93
2022-12-01T08:48:08.345Z,106.75
2022-12-01T08:53:10.908Z,103.32
2022-12-01T08:58:13.473Z,100.40
2022-12-01T09:03:16.077Z,96.88
2022-12-01T09:08:35.175Z,96.93
2022-12-01T09:13:41.489Z,90.47
2022-12-01T09:18:44.776Z,89.93
2022-12-01T09:23:47.698Z,87.50
2022-12-01T09:28:52.954Z,86.32
2022-12-01T09:33:56.919Z,81.32
2022-12-01T09:39:00.148Z,81.82
2022-12-01T09:44:06.163Z,81.70
2022-12-01T09:49:20.582Z,74.47
2022-12-01T09:54:23.287Z,74.80
2022-12-01T09:59:27.465Z,72.45
2022-12-01T10:04:38.442Z,68.40
2022-12-01T10:09:58.006Z,75.18
2022-12-01T10:15:06.750Z,70.72
2022-12-01T10:20:24.798Z,66.85
2022-12-01T10:25:28.459Z,71.72
2022-12-01T10:30:31.004Z,68.18
2022-12-01T10:35:37.346Z,74.15
2022-12-01T10:40:41.599Z,71.43
2022-12-01T10:45:48.329Z,69.97
2022-12-01T10:50:55.342Z,65.45
2022-12-01T10:56:02.127Z,66.22
2022-12-01T11:01:08.806Z,64.15
2022-12-01T11:06:11.631Z,70.80
2022-12-01T11:11:29.384Z,62.85
2022-12-01T11:16:40.441Z,61.13
2022-12-01T11:21:47.287Z,59.65
2022-12-01T11:26:49.981Z,59.85
2022-12-01T11:31:53.311Z,62.38
2022-12-01T11:37:03.325Z,59.35
2022-12-01T11:42:07.435Z,61.58
2022-12-01T11:47:25.319Z,57.60
2022-12-01T11:52:28.535Z,62.30
2022-12-01T11:57:34.531Z,59.92
2022-12-01T12:02:49.572Z,55.95
2022-12-01T12:07:55.300Z,56.83
2022-12-01T12:13:07.288Z,54.75
2022-12-01T12:18:24.460Z,54.93
2022-12-01T12:23:36.936Z,53.90
2022-12-01T12:29:00.405Z,52.05
2022-12-01T12:34:16.301Z,51.20
2022-12-01T12:39:46.149Z,52.92
2022-12-01T12:44:57.388Z,55.97
2022-12-01T12:50:17.724Z,54.67
2022-12-01T12:55:27.616Z,52.47
2022-12-01T13:00:31.297Z,51.00
2022-12-01T13:05:38.998Z,50.75
2022-12-01T13:10:41.781Z,50.78
2022-12-01T13:15:45.472Z,48.05
2022-12-01T13:20:49.470Z,49.05
2022-12-01T13:25:54.637Z,45.05
2022-12-01T13:31:06.540Z,45.35
2022-12-01T13:41:35.634Z,49.42
2022-12-01T13:46:38.348Z,52.78
2022-12-01T13:51:59.957Z,48.35
2022-12-01T13:57:04.422Z,47.53
2022-12-01T14:02:15.149Z,48.28
2022-12-01T14:07:37.977Z,44.20
2022-12-01T14:12:45.124Z,50.15
2022-12-01T14:17:48.113Z,49.40
2022-12-01T14:23:03.361Z,47.83
2022-12-01T14:28:13.276Z,46.15
2022-12-01T14:33:45.199Z,44.58
2022-12-01T14:38:48.714Z,45.35
2022-12-01T14:44:03.837Z,50.58
2022-12-01T14:49:09.958Z,50.88
2022-12-01T14:54:18.228Z,50.35
2022-12-01T14:59:22.379Z,50.20
2022-12-01T15:04:25.367Z,48.05
2022-12-01T15:09:34.048Z,46.78
2022-12-01T15:14:38.801Z,52.88
2022-12-01T15:19:41.848Z,52.60
2022-12-01T15:24:45.129Z,51.10
2022-12-01T15:29:48.404Z,50.53
2022-12-01T15:34:53.448Z,52.83
2022-12-01T15:45:41.758Z,50.55
2022-12-01T15:50:48.162Z,50.38
2022-12-01T15:55:57.140Z,51.25
2022-12-01T16:01:03.037Z,44.95
2022-12-01T16:06:11.227Z,49.15
2022-12-01T16:11:15.522Z,50.67
2022-12-01T16:16:24.433Z,49.13
2022-12-01T16:21:27.620Z,48.70
2022-12-01T16:26:30.786Z,46.30
2022-12-01T16:31:33.831Z,49.10
2022-12-01T16:36:36.548Z,48.10
2022-12-01T16:41:41.274Z,49.60
2022-12-01T16:46:44.387Z,49.63
2022-12-01T16:51:55.770Z,50.25
2022-12-01T16:57:08.873Z,50.50
2022-12-01T17:02:14.727Z,48.10
2022-12-01T17:07:19.305Z,47.30
2022-12-01T17:12:27.020Z,50.58
2022-12-01T17:17:30.789Z,50.50
2022-12-01T17:22:38.792Z,50.42
2022-12-01T17:27:44.020Z,51.25
2022-12-01T17:32:47.076Z,48.63
2022-12-01T17:37:50.084Z,48.10
2022-12-01T17:42:52.803Z,46.00
2022-12-01T17:47:55.650Z,47.97
2022-12-01T17:52:59.834Z,45.17
2022-12-01T17:58:03.909Z,43.75
2022-12-01T18:03:07.784Z,44.40
2022-12-01T18:08:10.838Z,44.72
2022-12-01T18:13:13.992Z,42.22
2022-12-01T18:18:16.654Z,46.63
2022-12-01T18:23:19.200Z,55.90
2022-12-01T18:28:21.973Z,43.22
2022-12-01T18:33:24.575Z,42.78
2022-12-01T18:38:28.327Z,43.15
2022-12-01T18:43:31.711Z,44.88
2022-12-01T18:48:35.289Z,45.47
2022-12-01T18:53:38.068Z,43.53
2022-12-01T18:58:40.951Z,43.78
2022-12-01T19:03:43.600Z,38.42
2022-12-01T19:08:46.260Z,40.90
2022-12-01T19:13:48.924Z,43.53
2022-12-01T19:18:51.658Z,43.58
2022-12-01T19:23:54.479Z,43.58
2022-12-01T19:28:58.234Z,40.20
2022-12-01T19:34:00.777Z,65.72
2022-12-01T19:39:05.955Z,41.03
2022-12-01T19:44:12.306Z,42.72
2022-12-01T19:49:14.903Z,44.22
2022-12-01T19:54:18.793Z,41.45
2022-12-01T19:59:21.515Z,43.97
2022-12-01T20:04:24.874Z,40.00
2022-12-01T20:09:28.597Z,44.60
2022-12-01T20:14:31.245Z,43.08
2022-12-01T20:19:33.911Z,41.42
2022-12-01T20:24:41.380Z,50.05
2022-12-01T20:29:44.069Z,44.60
2022-12-01T20:34:46.963Z,41.88
2022-12-01T20:39:49.542Z,46.80
2022-12-01T20:44:52.482Z,45.83
2022-12-01T20:49:58.261Z,41.60
2022-12-01T20:55:01.510Z,41.35
2022-12-01T21:00:05.231Z,45.15
2022-12-01T21:05:08.003Z,47.67
2022-12-01T21:10:13.512Z,42.00
2022-12-01T21:15:22.722Z,41.85
2022-12-01T21:20:27.333Z,42.10
2022-12-01T21:25:29.926Z,42.53
2022-12-01T21:30:32.983Z,41.03
2022-12-01T21:35:35.756Z,41.72
2022-12-01T21:40:41.321Z,42.30
2022-12-01T21:45:44.336Z,39.85
2022-12-01T21:50:50.958Z,41.13
2022-12-01T21:55:56.670Z,41.35
2022-12-01T22:00:59.602Z,41.85
2022-12-01T22:06:28.763Z,43.33
2022-12-01T22:11:31.580Z,39.65
2022-12-01T22:16:57.604Z,42.80
2022-12-01T22:22:01.974Z,41.20
2022-12-01T22:27:23.006Z,42.58
2022-12-01T22:32:45.986Z,38.78
2022-12-01T22:37:52.878Z,40.80
2022-12-01T22:42:55.571Z,44.13
2022-12-01T22:48:01.162Z,42.53
2022-12-01T22:53:10.970Z,43.08
2022-12-01T22:58:19.391Z,41.30
2022-12-01T23:03:22.131Z,40.70
2022-12-01T23:08:24.793Z,40.35
2022-12-01T23:13:27.433Z,42.30
2022-12-01T23:18:32.371Z,39.22
2022-12-01T23:23:36.659Z,42.85
2022-12-01T23:28:39.573Z,40.90
2022-12-01T23:33:42.166Z,39.80
2022-12-01T23:38:49.794Z,38.50
2022-12-01T23:43:53.852Z,43.38
2022-12-01T23:49:00.876Z,43.42
2022-12-01T23:54:10.299Z,40.63
2022-12-01T23:59:13.584Z,43.60
